Terminal Aerodrome Forecast
Issued by NWS Jacksonville, FL

Home | Current Version | Previous Version | Text Only | Print | Product List | Glossary On
Versions: 1 2 3 4 5 6 7 8 9 10 11 12 13 14 15 16 17 18
997
FTUS42 KJAX 181744
TAFJAX
TAF
KJAX 181744Z 1818/1918 20009G15KT P6SM SCT045
     FM190000 22004KT P6SM FEW250
     FM190800 21007KT P6SM SCT040 SCT250
     FM191100 24010KT P6SM VCSH SCT020 BKN080 PROB30 1912/1915 5SM
      SHRA BR SCT010 BKN020
     FM191600 32012G20KT P6SM SCT050 BKN090=

USA.gov is the U.S. government's official web portal to all federal, state and local government web resources and services.